createdAt,value
2023-09-17T08:18:33.047Z,45.10
2023-09-17T08:21:00.514Z,44.33
2023-09-17T08:23:27.562Z,43.22
2023-09-17T08:25:55.347Z,42.59
2023-09-17T08:28:24.254Z,41.91
2023-09-17T08:30:51.136Z,41.30
2023-09-17T08:33:18.309Z,40.03
2023-09-17T08:35:45.958Z,39.91
2023-09-17T08:38:12.984Z,39.70
2023-09-17T08:40:40.848Z,40.05
2023-09-17T08:43:07.819Z,40.04
2023-09-17T08:45:34.988Z,39.41
2023-09-17T08:48:01.990Z,38.99
2023-09-17T08:50:30.381Z,39.25
2023-09-17T08:53:00.513Z,39.56
2023-09-17T08:55:27.657Z,38.61
2023-09-17T08:58:12.922Z,39.63
2023-09-17T09:00:39.794Z,40.34
2023-09-17T09:03:07.722Z,39.95
2023-09-17T09:05:36.361Z,39.61
2023-09-17T09:08:05.952Z,39.79
2023-09-17T09:10:32.912Z,40.80
2023-09-17T09:13:01.222Z,41.42
2023-09-17T09:15:28.257Z,41.99
2023-09-17T09:17:57.905Z,42.69
2023-09-17T09:20:25.661Z,42.99
2023-09-17T09:22:52.823Z,42.86
2023-09-17T09:25:20.012Z,41.79
2023-09-17T09:27:46.926Z,39.44
2023-09-17T09:30:17.634Z,39.12
2023-09-17T09:32:44.995Z,39.06
2023-09-17T09:35:12.130Z,39.39
2023-09-17T09:37:39.264Z,39.50
2023-09-17T09:40:07.709Z,39.39
2023-09-17T09:42:34.768Z,38.96
2023-09-17T09:45:03.469Z,39.36
2023-09-17T09:47:31.518Z,38.52
2023-09-17T09:49:58.536Z,38.44
2023-09-17T09:52:25.503Z,38.52
2023-09-17T09:54:52.373Z,39.01
2023-09-17T09:57:20.296Z,38.81
2023-09-17T09:59:48.847Z,39.05
2023-09-17T10:02:17.082Z,39.20
2023-09-17T10:04:45.346Z,39.32
2023-09-17T10:07:12.605Z,38.77
2023-09-17T10:09:39.713Z,37.68
2023-09-17T10:12:07.437Z,37.36
2023-09-17T10:14:39.009Z,37.18
2023-09-17T10:17:09.470Z,36.79
2023-09-17T10:19:36.666Z,37.40
2023-09-17T10:22:08.848Z,37.81
2023-09-17T10:24:37.512Z,38.22
2023-09-17T10:27:05.721Z,38.65
2023-09-17T10:29:33.121Z,38.88
2023-09-17T10:32:00.148Z,38.91
2023-09-17T10:34:27.207Z,38.46
2023-09-17T10:36:54.248Z,37.46
2023-09-17T10:39:21.099Z,36.46
2023-09-17T10:41:49.759Z,35.69
2023-09-17T10:44:17.610Z,35.97
2023-09-17T10:46:46.495Z,35.67
2023-09-17T10:49:13.574Z,36.29
2023-09-17T10:51:41.017Z,37.19
2023-09-17T10:54:07.920Z,37.26
2023-09-17T10:56:35.065Z,36.96
2023-09-17T10:59:02.249Z,36.39
2023-09-17T11:01:32.291Z,35.32
2023-09-17T11:04:02.339Z,35.17
2023-09-17T11:06:30.588Z,35.21
2023-09-17T11:08:57.893Z,36.48
2023-09-17T11:11:26.036Z,38.06
2023-09-17T11:13:53.777Z,38.71
2023-09-17T11:16:28.364Z,38.96
2023-09-17T11:19:09.752Z,39.05
2023-09-17T11:21:38.021Z,39.18
2023-09-17T11:24:10.755Z,38.44
2023-09-17T11:26:39.776Z,37.65
2023-09-17T11:29:07.337Z,37.52
2023-09-17T11:31:58.756Z,37.82
2023-09-17T11:34:25.731Z,38.16
2023-09-17T11:36:53.385Z,38.29
2023-09-17T11:39:22.820Z,38.12
2023-09-17T11:42:04.526Z,38.78
2023-09-17T11:44:36.380Z,39.67
2023-09-17T11:47:04.384Z,39.38
2023-09-17T11:49:32.348Z,39.73
2023-09-17T11:52:00.935Z,41.39
2023-09-17T11:54:35.264Z,41.70
2023-09-17T11:57:02.259Z,41.97
2023-09-17T11:59:29.712Z,42.36
2023-09-17T12:01:58.271Z,41.76
2023-09-17T12:04:30.111Z,41.18
2023-09-17T12:06:57.259Z,40.72
2023-09-17T12:09:50.855Z,40.95
2023-09-17T12:12:20.516Z,40.86
2023-09-17T12:14:48.832Z,39.89
2023-09-17T12:17:17.697Z,39.14
2023-09-17T12:19:46.826Z,39.33
2023-09-17T12:22:14.099Z,39.52
2023-09-17T12:24:50.922Z,39.32
2023-09-17T12:27:30.989Z,38.59
2023-09-17T12:29:58.627Z,39.13
2023-09-17T12:32:27.055Z,39.68
2023-09-17T12:34:55.114Z,39.73
2023-09-17T12:37:22.540Z,39.74
2023-09-17T12:39:50.841Z,39.68
2023-09-17T12:42:18.213Z,39.93
2023-09-17T12:44:45.143Z,39.62
2023-09-17T12:47:12.115Z,39.38
2023-09-17T12:49:39.102Z,39.23
2023-09-17T12:52:06.070Z,39.01
2023-09-17T12:54:33.717Z,39.09
2023-09-17T12:57:00.635Z,39.18
2023-09-17T12:59:34.856Z,39.61
2023-09-17T13:02:04.792Z,39.42
2023-09-17T13:04:38.863Z,38.99
2023-09-17T13:07:07.074Z,38.66
2023-09-17T13:09:34.010Z,38.25
2023-09-17T13:12:02.418Z,37.86
2023-09-17T13:14:31.630Z,37.60
2023-09-17T13:16:58.631Z,37.15
2023-09-17T13:19:25.995Z,37.09
2023-09-17T13:21:52.951Z,37.67
2023-09-17T13:24:20.261Z,38.30
2023-09-17T13:26:47.174Z,38.86
2023-09-17T13:29:14.122Z,38.78
2023-09-17T13:31:41.978Z,38.23
2023-09-17T13:34:09.820Z,38.01
2023-09-17T13:36:37.207Z,37.78
2023-09-17T13:39:04.714Z,38.13
2023-09-17T13:41:31.830Z,38.42
2023-09-17T13:43:59.444Z,39.46
2023-09-17T13:46:28.630Z,39.71
2023-09-17T13:48:56.269Z,40.27
2023-09-17T13:51:23.216Z,40.58
2023-09-17T13:53:50.070Z,40.12
2023-09-17T13:56:17.258Z,40.15
2023-09-17T13:58:44.406Z,40.54
2023-09-17T14:01:13.480Z,40.97
2023-09-17T14:03:40.488Z,41.30
2023-09-17T14:06:07.458Z,41.54
2023-09-17T14:08:35.765Z,41.43
2023-09-17T14:11:04.251Z,41.34
2023-09-17T14:13:31.602Z,41.74
2023-09-17T14:15:58.517Z,41.88
2023-09-17T14:18:25.549Z,42.04
2023-09-17T14:20:52.452Z,42.16
2023-09-17T14:23:19.393Z,41.97
2023-09-17T14:25:46.316Z,42.13
2023-09-17T14:28:13.265Z,42.62
2023-09-17T14:30:40.257Z,42.93
2023-09-17T14:33:07.336Z,42.41
2023-09-17T14:35:35.089Z,42.20
2023-09-17T14:38:02.499Z,43.15
2023-09-17T14:40:29.773Z,43.86
2023-09-17T14:42:56.894Z,43.51
2023-09-17T14:45:23.981Z,44.25
2023-09-17T14:47:51.431Z,44.37
2023-09-17T14:50:18.578Z,44.35
2023-09-17T14:52:45.520Z,44.98
2023-09-17T14:55:13.252Z,45.62
2023-09-17T14:57:41.680Z,45.74
2023-09-17T15:00:10.453Z,45.98
2023-09-17T15:02:37.697Z,46.65
2023-09-17T15:05:05.173Z,47.30
2023-09-17T15:07:32.331Z,47.45
2023-09-17T15:09:59.342Z,47.96
2023-09-17T15:12:28.434Z,48.36
2023-09-17T15:14:55.285Z,48.39
2023-09-17T15:17:24.891Z,48.96
2023-09-17T15:19:51.910Z,49.55
2023-09-17T15:22:18.886Z,49.46
2023-09-17T15:24:46.113Z,48.80
2023-09-17T15:27:13.006Z,49.65
2023-09-17T15:29:39.855Z,49.95
2023-09-17T15:32:07.412Z,49.71
2023-09-17T15:34:36.552Z,49.33
2023-09-17T15:37:04.110Z,50.01
2023-09-17T15:39:30.995Z,50.62
2023-09-17T15:41:58.585Z,51.54
2023-09-17T15:44:25.985Z,51.36
2023-09-17T15:46:53.073Z,51.24
2023-09-17T15:49:19.925Z,51.06
2023-09-17T15:51:46.881Z,51.42
2023-09-17T15:54:14.192Z,51.49
2023-09-17T15:56:42.320Z,51.74
2023-09-17T15:59:10.424Z,52.01
2023-09-17T16:01:39.941Z,52.18
2023-09-17T16:04:06.995Z,52.82
2023-09-17T16:06:34.012Z,53.13
2023-09-17T16:09:01.013Z,53.60
2023-09-17T16:11:27.904Z,54.06
2023-09-17T16:13:55.207Z,54.22
2023-09-17T16:16:22.528Z,54.13
2023-09-17T16:18:49.507Z,54.61
2023-09-17T16:21:16.704Z,55.03
2023-09-17T16:23:43.613Z,55.28
2023-09-17T16:26:10.558Z,55.23
2023-09-17T16:28:37.480Z,55.22
2023-09-17T16:31:04.453Z,55.34
2023-09-17T16:33:31.425Z,55.35
2023-09-17T16:36:00.747Z,55.73
2023-09-17T16:38:27.818Z,55.97
2023-09-17T16:40:55.001Z,56.15
2023-09-17T16:43:22.267Z,56.42
2023-09-17T16:45:49.304Z,56.69
2023-09-17T16:48:16.565Z,58.10
2023-09-17T16:50:43.780Z,59.50
2023-09-17T16:53:10.829Z,60.24
2023-09-17T16:55:39.218Z,60.77
2023-09-17T16:58:06.277Z,61.35
2023-09-17T17:00:33.655Z,61.73
2023-09-17T17:03:00.956Z,62.50
2023-09-17T17:05:28.039Z,62.60
2023-09-17T17:07:55.125Z,63.39
2023-09-17T17:10:22.093Z,64.35
2023-09-17T17:12:49.069Z,65.32
2023-09-17T17:15:16.089Z,66.27
2023-09-17T17:17:43.413Z,66.78
2023-09-17T17:20:10.795Z,67.55
2023-09-17T17:22:48.731Z,68.36
2023-09-17T17:25:19.258Z,69.05
2023-09-17T17:27:47.488Z,69.64
2023-09-17T17:30:14.748Z,70.03
2023-09-17T17:32:43.700Z,70.33
2023-09-17T17:35:11.090Z,70.66
2023-09-17T17:37:39.341Z,71.19
2023-09-17T17:40:06.739Z,71.51
2023-09-17T17:42:33.906Z,72.22
2023-09-17T17:45:00.827Z,72.83
2023-09-17T17:47:28.609Z,73.16
2023-09-17T17:49:57.287Z,73.69
2023-09-17T17:52:24.467Z,74.27
2023-09-17T17:54:51.502Z,75.13
2023-09-17T17:57:21.371Z,75.52
2023-09-17T17:59:48.437Z,75.71
2023-09-17T18:02:15.521Z,76.11
2023-09-17T18:04:42.940Z,76.65
2023-09-17T18:07:11.995Z,76.93
2023-09-17T18:09:39.296Z,77.31
2023-09-17T18:12:06.415Z,77.39
2023-09-17T18:14:33.454Z,77.67
2023-09-17T18:17:00.729Z,77.85
2023-09-17T18:19:27.868Z,78.13
2023-09-17T18:21:55.004Z,78.68
2023-09-17T18:24:24.774Z,79.18
2023-09-17T18:26:52.063Z,79.49
2023-09-17T18:29:23.066Z,79.86
2023-09-17T18:31:50.279Z,80.13
2023-09-17T18:35:08.030Z,80.72
2023-09-17T18:37:35.179Z,81.19
2023-09-17T18:40:02.109Z,81.48
2023-09-17T18:42:30.382Z,81.58
2023-09-17T18:44:57.919Z,81.93
2023-09-17T18:47:24.901Z,82.39
2023-09-17T18:49:53.639Z,82.90
2023-09-17T18:52:20.690Z,83.18
2023-09-17T18:54:47.776Z,83.40
2023-09-17T18:57:16.478Z,83.57
2023-09-17T18:59:45.647Z,83.67
2023-09-17T19:02:12.781Z,83.85
2023-09-17T19:04:40.519Z,84.12
2023-09-17T19:07:08.065Z,84.39
2023-09-17T19:09:35.022Z,84.63
2023-09-17T19:12:06.223Z,84.81
2023-09-17T19:14:41.312Z,85.06
2023-09-17T19:17:09.536Z,85.38
2023-09-17T19:19:36.596Z,85.92
2023-09-17T19:22:10.305Z,86.09
2023-09-17T19:24:37.951Z,86.41
2023-09-17T19:27:05.361Z,86.46
2023-09-17T19:29:32.556Z,86.54
2023-09-17T19:31:59.748Z,86.81
2023-09-17T19:34:27.402Z,87.20
2023-09-17T19:36:54.381Z,87.58
2023-09-17T19:39:21.270Z,88.00
2023-09-17T19:41:48.215Z,88.21
2023-09-17T19:44:15.270Z,88.39
2023-09-17T19:46:42.502Z,88.59
2023-09-17T19:49:35.424Z,88.65
2023-09-17T19:52:02.487Z,89.03
2023-09-17T19:54:29.492Z,89.22
2023-09-17T19:56:56.447Z,89.18
2023-09-17T19:59:23.655Z,89.17
2023-09-17T20:01:50.982Z,89.37
2023-09-17T20:04:17.942Z,89.40
2023-09-17T20:06:54.426Z,89.64
2023-09-17T20:09:22.542Z,89.97
2023-09-17T20:11:49.550Z,90.27
2023-09-17T20:14:16.582Z,90.66
2023-09-17T20:16:43.857Z,90.85
2023-09-17T20:19:11.223Z,91.13
2023-09-17T20:21:39.121Z,91.39
2023-09-17T20:24:07.456Z,91.75
2023-09-17T20:26:37.427Z,92.09
2023-09-17T20:29:05.323Z,92.36
2023-09-17T20:31:32.915Z,92.53
2023-09-17T20:35:50.627Z,92.81
2023-09-17T20:38:18.661Z,93.00
2023-09-17T20:40:46.201Z,93.21
2023-09-17T20:43:13.504Z,93.38
2023-09-17T20:45:40.447Z,93.54
2023-09-17T20:48:07.885Z,93.70
2023-09-17T20:50:35.296Z,93.82
2023-09-17T20:53:02.960Z,93.91
2023-09-17T20:55:30.602Z,93.88
2023-09-17T20:57:57.765Z,93.93
2023-09-17T21:00:25.324Z,93.91
2023-09-17T21:02:54.926Z,94.01
2023-09-17T21:05:23.838Z,94.25
2023-09-17T21:07:51.005Z,94.43
2023-09-17T21:10:18.840Z,94.72
2023-09-17T21:12:45.952Z,94.85
2023-09-17T21:15:13.184Z,95.20
2023-09-17T21:17:43.434Z,95.44
2023-09-17T21:20:19.843Z,95.62
2023-09-17T21:22:48.070Z,95.76
2023-09-17T21:25:17.125Z,95.93
2023-09-17T21:27:45.555Z,96.15
2023-09-17T21:30:13.707Z,96.10
2023-09-17T21:32:42.069Z,96.22
2023-09-17T21:35:11.691Z,96.49
2023-09-17T21:37:39.533Z,96.69
2023-09-17T21:40:07.502Z,96.72
2023-09-17T21:42:36.959Z,96.91
2023-09-17T21:45:05.096Z,97.07
2023-09-17T21:47:32.698Z,97.25
2023-09-17T21:50:01.564Z,97.49
2023-09-17T21:52:30.852Z,97.66
2023-09-17T21:54:58.250Z,97.75
2023-09-17T21:57:26.173Z,97.77
2023-09-17T21:59:53.785Z,97.81
2023-09-17T22:02:21.016Z,98.01
2023-09-17T22:04:49.593Z,98.06
2023-09-17T22:07:19.056Z,98.16
2023-09-17T22:09:46.466Z,98.34
2023-09-17T22:19:52.043Z,98.56
2023-09-17T22:22:20.277Z,98.70
2023-09-17T22:24:47.632Z,98.71
2023-09-17T22:27:16.222Z,98.64
2023-09-17T22:29:44.263Z,98.71
2023-09-17T22:32:11.466Z,98.73
2023-09-17T22:34:39.072Z,98.72
2023-09-17T22:37:06.275Z,98.84
2023-09-17T22:39:33.463Z,99.10
2023-09-17T22:42:00.804Z,99.51
2023-09-17T22:44:28.117Z,99.64
2023-09-17T22:46:55.103Z,99.65
2023-09-17T22:49:24.834Z,99.64
2023-09-17T22:51:51.931Z,99.75
2023-09-17T23:01:19.088Z,99.96
2023-09-17T23:03:46.576Z,99.97
2023-09-17T23:06:14.192Z,100.00
2023-09-17T23:08:42.939Z,100.00
2023-09-17T23:11:10.620Z,100.00
2023-09-17T23:13:38.459Z,100.00
2023-09-17T23:16:05.972Z,100.00
2023-09-17T23:18:34.119Z,100.00
2023-09-17T23:21:05.183Z,100.00
2023-09-17T23:23:32.963Z,100.00
2023-09-17T23:26:02.962Z,100.00
2023-09-17T23:28:34.692Z,100.00
2023-09-17T23:31:11.582Z,100.00
2023-09-17T23:33:40.955Z,100.00
2023-09-17T23:36:08.519Z,100.00
2023-09-17T23:38:36.179Z,100.00
2023-09-17T23:41:04.493Z,100.00
2023-09-17T23:43:31.623Z,100.00
2023-09-17T23:45:58.768Z,100.00
